createdAt,value
2023-06-04T00:02:26.542Z,99234.94
2023-06-04T00:04:53.835Z,99229.81
2023-06-04T00:07:21.191Z,99224.59
2023-06-04T00:09:48.357Z,99226.47
2023-06-04T00:12:16.685Z,99222.13
2023-06-04T00:14:43.900Z,99221.34
2023-06-04T00:17:11.917Z,99223.19
2023-06-04T00:19:42.146Z,99223.25
2023-06-04T00:22:09.776Z,99215.44
2023-06-04T00:24:39.919Z,99213.78
2023-06-04T00:27:11.541Z,99215.63
2023-06-04T00:29:38.439Z,99214.81
2023-06-04T00:32:06.054Z,99210.56
2023-06-04T00:34:33.106Z,99211.50
2023-06-04T00:37:02.593Z,99214.13
2023-06-04T00:39:30.435Z,99209.84
2023-06-04T00:41:57.683Z,99200.31
2023-06-04T00:44:26.365Z,99202.16
2023-06-04T00:46:54.912Z,99203.97
2023-06-04T00:49:21.947Z,99201.50
2023-06-04T00:51:49.456Z,99202.41
2023-06-04T00:54:19.156Z,99198.91
2023-06-04T00:56:49.308Z,99205.06
2023-06-04T00:59:16.415Z,99201.59
2023-06-04T01:01:54.853Z,99192.91
2023-06-04T01:04:30.480Z,99197.31
2023-06-04T01:06:59.700Z,99189.56
2023-06-04T01:09:30.855Z,99195.69
2023-06-04T01:12:03.000Z,99197.53
2023-06-04T01:14:30.402Z,99198.44
2023-06-04T01:17:12.676Z,99195.06
2023-06-04T01:19:44.009Z,99195.94
2023-06-04T01:22:25.254Z,99192.56
2023-06-04T01:24:57.223Z,99189.97
2023-06-04T01:27:24.809Z,99189.19
2023-06-04T01:29:52.553Z,99192.72
2023-06-04T01:32:20.311Z,99189.28
2023-06-04T01:34:47.783Z,99184.06
2023-06-04T01:37:15.045Z,99189.34
2023-06-04T01:39:42.149Z,99191.13
2023-06-04T01:42:09.995Z,99183.34
2023-06-04T01:44:36.877Z,99181.66
2023-06-04T01:47:04.215Z,99185.19
2023-06-04T01:49:31.165Z,99181.72
2023-06-04T01:51:58.387Z,99184.41
2023-06-04T01:54:25.292Z,99185.25
2023-06-04T01:56:52.459Z,99173.16
2023-06-04T01:59:19.489Z,99186.19
2023-06-04T02:01:46.694Z,99182.78
2023-06-04T02:04:13.608Z,99194.09
2023-06-04T02:06:40.800Z,99188.09
2023-06-04T02:09:07.760Z,99187.25
2023-06-04T02:11:35.021Z,99189.00
2023-06-04T02:14:01.927Z,99184.69
2023-06-04T02:16:29.216Z,99190.84
2023-06-04T02:18:56.083Z,99191.75
2023-06-04T02:21:23.267Z,99199.63
2023-06-04T02:23:50.289Z,99200.50
2023-06-04T02:26:17.572Z,99200.50
2023-06-04T02:28:44.476Z,99197.94
2023-06-04T02:31:11.752Z,99196.25
2023-06-04T02:33:39.191Z,99200.63
2023-06-04T02:36:06.722Z,99199.72
2023-06-04T02:38:34.764Z,99205.00
2023-06-04T02:41:01.929Z,99209.34
2023-06-04T02:43:28.783Z,99214.56
2023-06-04T02:45:55.971Z,99211.06
2023-06-04T02:48:22.832Z,99209.28
2023-06-04T02:50:50.004Z,99205.78
2023-06-04T02:53:16.897Z,99208.31
2023-06-04T02:55:44.189Z,99203.94
2023-06-04T02:58:11.113Z,99205.63
2023-06-04T03:00:38.350Z,99216.84
2023-06-04T03:03:05.370Z,99209.81
2023-06-04T03:05:34.370Z,99200.16
2023-06-04T03:08:03.887Z,99213.13
2023-06-04T03:10:32.388Z,99211.22
2023-06-04T03:12:59.501Z,99208.50
2023-06-04T03:15:26.879Z,99209.22
2023-06-04T03:17:53.922Z,99203.84
2023-06-04T03:20:25.186Z,99211.50
2023-06-04T03:22:53.200Z,99204.28
2023-06-04T03:25:20.394Z,99207.56
2023-06-04T03:27:47.307Z,99207.38
2023-06-04T03:30:14.647Z,99201.97
2023-06-04T03:32:41.648Z,99207.00
2023-06-04T03:35:09.309Z,99205.06
2023-06-04T03:37:36.199Z,99209.19
2023-06-04T03:40:05.149Z,99208.03
2023-06-04T03:42:32.030Z,99206.81
2023-06-04T03:45:00.665Z,99202.13
2023-06-04T03:47:27.671Z,99203.47
2023-06-04T03:49:54.981Z,99211.81
2023-06-04T03:52:21.940Z,99204.47
2023-06-04T03:54:49.106Z,99208.47
2023-06-04T03:57:16.098Z,99202.84
2023-06-04T03:59:43.237Z,99208.47
2023-06-04T04:02:10.213Z,99213.16
2023-06-04T04:04:37.455Z,99204.56
2023-06-04T04:07:04.399Z,99198.47
2023-06-04T04:09:31.545Z,99206.34
2023-06-04T04:11:58.542Z,99201.16
2023-06-04T04:14:25.719Z,99205.59
2023-06-04T04:16:52.638Z,99204.75
2023-06-04T04:19:19.870Z,99197.72
2023-06-04T04:21:49.542Z,99199.22
2023-06-04T04:24:27.273Z,99198.81
2023-06-04T04:26:55.211Z,99197.41
2023-06-04T04:29:26.212Z,99192.38
2023-06-04T04:31:53.581Z,99190.91
2023-06-04T04:34:22.795Z,99193.75
2023-06-04T04:36:57.816Z,99197.97
2023-06-04T04:39:25.951Z,99195.25
2023-06-04T04:41:53.290Z,99207.53
2023-06-04T04:44:20.869Z,99202.19
2023-06-04T04:46:49.985Z,99200.41
2023-06-04T04:49:17.378Z,99196.84
2023-06-04T04:51:44.506Z,99200.47
2023-06-04T04:54:11.885Z,99195.13
2023-06-04T04:56:38.869Z,99196.66
2023-06-04T04:59:06.474Z,99195.16
2023-06-04T05:01:33.391Z,99191.03
2023-06-04T05:04:02.951Z,99181.69
2023-06-04T05:06:30.461Z,99196.19
2023-06-04T05:08:57.623Z,99190.97
2023-06-04T05:11:24.495Z,99196.81
2023-06-04T05:13:51.760Z,99186.41
2023-06-04T05:16:21.829Z,99189.63
2023-06-04T05:18:52.824Z,99198.53
2023-06-04T05:21:19.895Z,99196.69
2023-06-04T05:23:49.526Z,99191.53
2023-06-04T05:26:16.835Z,99193.44
2023-06-04T05:28:44.955Z,99191.09
2023-06-04T05:31:14.465Z,99201.41
2023-06-04T05:33:41.786Z,99202.06
2023-06-04T05:36:08.697Z,99194.31
2023-06-04T05:38:36.899Z,99196.06
2023-06-04T05:41:03.908Z,99199.63
2023-06-04T05:43:31.216Z,99195.41
2023-06-04T05:45:58.200Z,99188.94
2023-06-04T05:48:25.905Z,99192.97
2023-06-04T05:50:52.830Z,99195.47
2023-06-04T05:53:20.128Z,99181.88
2023-06-04T05:55:47.049Z,99189.91
2023-06-04T05:58:14.283Z,99190.00
2023-06-04T06:00:41.420Z,99183.75
2023-06-04T06:03:09.117Z,99182.94
2023-06-04T06:05:36.311Z,99177.50
2023-06-04T06:08:03.564Z,99182.19
2023-06-04T06:10:30.904Z,99173.88
2023-06-04T06:12:58.198Z,99179.38
2023-06-04T06:15:25.108Z,99177.06
2023-06-04T06:17:52.655Z,99181.47
2023-06-04T06:20:19.986Z,99181.28
2023-06-04T06:22:47.380Z,99173.66
2023-06-04T06:25:14.452Z,99179.38
2023-06-04T06:27:41.823Z,99184.59
2023-06-04T06:30:09.896Z,99182.09
2023-06-04T06:32:37.209Z,99188.63
2023-06-04T06:35:04.716Z,99184.97
2023-06-04T06:37:31.957Z,99181.50
2023-06-04T06:39:58.838Z,99182.06
2023-06-04T06:42:26.194Z,99175.06
2023-06-04T06:44:53.090Z,99179.16
2023-06-04T06:47:20.394Z,99176.31
2023-06-04T06:49:47.380Z,99180.41
2023-06-04T06:52:14.655Z,99190.72
2023-06-04T06:54:41.606Z,99188.47
2023-06-04T06:57:10.144Z,99186.88
2023-06-04T06:59:37.727Z,99187.13
2023-06-04T07:02:06.469Z,99188.44
2023-06-04T07:04:33.497Z,99183.22
2023-06-04T07:07:00.753Z,99175.22
2023-06-04T07:09:27.671Z,99184.28
2023-06-04T07:11:54.983Z,99181.25
2023-06-04T07:14:22.331Z,99184.63
2023-06-04T07:16:49.620Z,99168.38
2023-06-04T07:19:16.682Z,99186.63
2023-06-04T07:21:44.096Z,99182.16
2023-06-04T07:24:11.207Z,99181.91
2023-06-04T07:26:38.490Z,99182.59
2023-06-04T07:29:05.460Z,99191.09
2023-06-04T07:31:32.638Z,99191.91
2023-06-04T07:33:59.574Z,99202.72
2023-06-04T07:36:26.761Z,99195.31
2023-06-04T07:38:53.658Z,99186.34
2023-06-04T07:41:21.385Z,99186.81
2023-06-04T07:43:48.284Z,99182.56
2023-06-04T07:46:19.793Z,99185.66
2023-06-04T07:48:46.990Z,99186.44
2023-06-04T07:51:14.796Z,99178.78
2023-06-04T07:53:43.549Z,99187.09
2023-06-04T07:56:10.579Z,99186.44
2023-06-04T07:58:37.474Z,99180.38
2023-06-04T08:01:04.790Z,99170.72
2023-06-04T08:03:32.613Z,99185.31
2023-06-04T08:06:01.515Z,99184.34
2023-06-04T08:08:29.752Z,99178.31
2023-06-04T08:10:56.991Z,99181.78
2023-06-04T08:13:23.944Z,99181.66
2023-06-04T08:15:51.439Z,99176.41
2023-06-04T08:18:18.382Z,99176.91
2023-06-04T08:20:45.567Z,99190.19
2023-06-04T08:23:12.459Z,99176.56
2023-06-04T08:25:39.651Z,99179.25
2023-06-04T08:28:07.135Z,99173.50
2023-06-04T08:30:37.286Z,99173.22
2023-06-04T08:33:04.327Z,99171.59
2023-06-04T08:35:31.589Z,99179.13
2023-06-04T08:37:58.988Z,99181.31
2023-06-04T08:40:26.316Z,99180.03
2023-06-04T08:42:59.245Z,99176.50
2023-06-04T08:45:27.376Z,99181.91
2023-06-04T08:47:55.039Z,99172.69
2023-06-04T08:50:24.014Z,99180.78
2023-06-04T08:52:56.180Z,99183.28
2023-06-04T08:55:24.178Z,99180.53
2023-06-04T08:57:54.593Z,99188.13
2023-06-04T09:00:22.945Z,99170.16
2023-06-04T09:02:51.179Z,99173.59
2023-06-04T09:05:21.987Z,99172.84
2023-06-04T09:07:53.163Z,99178.16
2023-06-04T09:10:23.725Z,99185.63
2023-06-04T09:12:52.887Z,99179.28
2023-06-04T09:15:20.093Z,99178.06
2023-06-04T09:17:47.025Z,99172.25
2023-06-04T09:20:24.465Z,99173.09
2023-06-04T09:22:52.015Z,99167.22
2023-06-04T09:25:26.610Z,99169.38
2023-06-04T09:27:56.606Z,99171.16
2023-06-04T09:30:25.185Z,99169.38
2023-06-04T09:32:54.494Z,99159.00
2023-06-04T09:35:22.056Z,99153.38
2023-06-04T09:37:58.682Z,99165.94
2023-06-04T09:40:35.954Z,99152.31
2023-06-04T09:43:03.764Z,99154.09
2023-06-04T09:45:36.615Z,99165.84
2023-06-04T09:48:09.370Z,99154.84
2023-06-04T09:50:40.414Z,99150.38
2023-06-04T09:53:18.934Z,99157.97
2023-06-04T09:55:56.705Z,99159.94
2023-06-04T09:58:26.928Z,99163.78
2023-06-04T10:00:58.259Z,99149.00
2023-06-04T10:03:26.871Z,99150.22
2023-06-04T10:05:56.816Z,99152.16
2023-06-04T10:08:27.300Z,99152.53
2023-06-04T10:11:03.274Z,99171.25
2023-06-04T10:13:46.534Z,99155.31
2023-06-04T10:16:25.106Z,99147.78
2023-06-04T10:19:01.956Z,99149.50
2023-06-04T10:21:32.857Z,99138.00
2023-06-04T10:24:00.451Z,99148.06
2023-06-04T10:26:28.414Z,99140.38
2023-06-04T10:28:58.241Z,99154.38
2023-06-04T10:31:26.246Z,99153.09
2023-06-04T10:33:59.448Z,99154.88
2023-06-04T10:36:26.975Z,99153.06
2023-06-04T10:38:56.275Z,99144.91
2023-06-04T10:41:24.603Z,99152.78
2023-06-04T10:43:53.536Z,99152.75
2023-06-04T10:46:21.616Z,99137.91
2023-06-04T10:48:54.022Z,99136.75
2023-06-04T10:51:35.132Z,99144.38
2023-06-04T10:54:04.263Z,99140.41
2023-06-04T10:56:36.314Z,99137.28
2023-06-04T10:59:15.205Z,99133.38
2023-06-04T11:01:42.582Z,99151.38
2023-06-04T11:04:26.189Z,99139.38
2023-06-04T11:07:09.868Z,99136.81
2023-06-04T11:09:38.101Z,99138.53
2023-06-04T11:12:06.630Z,99126.34
2023-06-04T11:14:33.581Z,99143.97
2023-06-04T11:17:11.903Z,99130.94
2023-06-04T11:19:39.594Z,99143.03
2023-06-04T11:22:07.143Z,99129.53
2023-06-04T11:24:34.192Z,99134.78
2023-06-04T11:27:14.707Z,99140.59
2023-06-04T11:29:44.842Z,99138.44
2023-06-04T11:32:22.537Z,99140.47
2023-06-04T11:34:49.619Z,99133.94
2023-06-04T11:37:16.780Z,99132.22
2023-06-04T11:39:45.586Z,99140.25
2023-06-04T11:42:14.170Z,99144.91
2023-06-04T11:44:46.292Z,99135.97
2023-06-04T11:47:13.667Z,99139.31
2023-06-04T11:49:40.918Z,99130.75
2023-06-04T11:52:09.008Z,99126.91
2023-06-04T11:54:39.701Z,99125.94
2023-06-04T11:57:07.337Z,99140.13
2023-06-04T11:59:35.925Z,99135.78
2023-06-04T12:02:04.767Z,99136.53
2023-06-04T12:04:32.979Z,99132.06
2023-06-04T12:07:02.514Z,99132.44
2023-06-04T12:09:36.365Z,99130.28
2023-06-04T12:12:06.175Z,99119.88
2023-06-04T12:14:33.656Z,99125.66
2023-06-04T12:17:03.125Z,99127.22
2023-06-04T12:19:30.159Z,99123.47
2023-06-04T12:22:08.479Z,99133.06
2023-06-04T12:24:48.107Z,99131.16
2023-06-04T12:27:15.912Z,99122.13
2023-06-04T12:29:42.889Z,99128.84
2023-06-04T12:32:14.316Z,99136.22
2023-06-04T12:34:42.209Z,99129.84
2023-06-04T12:37:09.873Z,99135.75
2023-06-04T12:39:40.244Z,99130.44
2023-06-04T12:42:09.607Z,99130.50
2023-06-04T12:44:40.487Z,99129.31
2023-06-04T12:47:09.241Z,99124.94
2023-06-04T12:49:36.323Z,99130.38
2023-06-04T12:52:03.996Z,99129.41
2023-06-04T12:54:31.590Z,99123.69
2023-06-04T12:57:00.306Z,99125.53
2023-06-04T12:59:28.252Z,99121.75
2023-06-04T13:01:56.113Z,99124.59
2023-06-04T13:04:24.796Z,99118.75
2023-06-04T13:06:54.322Z,99125.56
2023-06-04T13:09:21.824Z,99127.94
2023-06-04T13:11:49.100Z,99122.19
2023-06-04T13:14:16.128Z,99129.69
2023-06-04T13:16:43.459Z,99124.22
2023-06-04T13:19:10.853Z,99116.56
2023-06-04T13:21:38.115Z,99128.75
2023-06-04T13:24:05.300Z,99124.97
2023-06-04T13:26:32.591Z,99118.84
2023-06-04T13:28:59.475Z,99119.47
2023-06-04T13:31:26.768Z,99111.56
2023-06-04T13:33:53.714Z,99116.03
2023-06-04T13:36:20.896Z,99127.78
2023-06-04T13:38:48.329Z,99126.72
2023-06-04T13:41:15.601Z,99124.13
2023-06-04T13:43:42.500Z,99115.94
2023-06-04T13:46:09.739Z,99123.09
2023-06-04T13:48:36.828Z,99125.25
2023-06-04T13:51:04.099Z,99114.84
2023-06-04T13:53:31.182Z,99112.41
2023-06-04T13:55:59.533Z,99113.88
2023-06-04T13:58:27.193Z,99102.63
2023-06-04T14:00:55.401Z,99108.56
2023-06-04T14:03:22.767Z,99111.09
2023-06-04T14:05:50.588Z,99106.38
2023-06-04T14:08:17.556Z,99109.06
2023-06-04T14:10:45.360Z,99106.16
2023-06-04T14:13:12.299Z,99102.28
2023-06-04T14:15:39.542Z,99111.06
2023-06-04T14:18:06.999Z,99110.75
2023-06-04T14:20:34.250Z,99102.81
2023-06-04T14:23:01.188Z,99106.69
2023-06-04T14:25:28.806Z,99113.28
2023-06-04T14:27:55.929Z,99105.00
2023-06-04T14:30:23.192Z,99103.50
2023-06-04T14:32:50.240Z,99105.53
2023-06-04T14:35:17.593Z,99101.84
2023-06-04T14:37:44.562Z,99097.06
2023-06-04T14:40:12.159Z,99098.63
2023-06-04T14:42:39.084Z,99095.06
2023-06-04T14:45:06.859Z,99094.03
2023-06-04T14:47:33.873Z,99097.03
2023-06-04T14:50:01.186Z,99094.31
2023-06-04T14:52:29.206Z,99096.69
2023-06-04T14:54:56.396Z,99087.75
2023-06-04T14:57:23.308Z,99092.66
2023-06-04T14:59:50.642Z,99090.28
2023-06-04T15:02:20.674Z,99091.78
2023-06-04T15:04:48.381Z,99076.94
2023-06-04T15:07:15.346Z,99085.38
2023-06-04T15:09:42.522Z,99088.25
2023-06-04T15:12:09.471Z,99089.75
2023-06-04T15:14:36.703Z,99081.13
2023-06-04T15:17:03.738Z,99088.53
2023-06-04T15:19:30.922Z,99085.44
2023-06-04T15:21:57.845Z,99086.25
2023-06-04T15:24:25.075Z,99088.09
2023-06-04T15:26:52.036Z,99086.88
2023-06-04T15:29:19.214Z,99080.97
2023-06-04T15:31:47.418Z,99077.44
2023-06-04T15:34:14.976Z,99080.13
2023-06-04T15:36:41.837Z,99076.75
2023-06-04T15:39:09.093Z,99082.31
2023-06-04T15:41:36.006Z,99076.22
2023-06-04T15:44:03.503Z,99078.06
2023-06-04T15:46:31.086Z,99066.72
2023-06-04T15:48:58.525Z,99065.56
2023-06-04T15:51:25.380Z,99066.69
2023-06-04T15:53:52.564Z,99066.78
2023-06-04T15:56:20.146Z,99066.88
2023-06-04T15:58:47.397Z,99068.31
2023-06-04T16:01:14.438Z,99073.66
2023-06-04T16:03:41.857Z,99077.16
2023-06-04T16:06:09.266Z,99074.09
2023-06-04T16:08:36.800Z,99078.81
2023-06-04T16:11:04.285Z,99082.34
2023-06-04T16:13:32.242Z,99084.50
2023-06-04T16:16:00.822Z,99079.91
2023-06-04T16:18:28.871Z,99067.34
2023-06-04T16:20:56.670Z,99074.06
2023-06-04T16:23:23.810Z,99066.72
2023-06-04T16:25:51.402Z,99069.66
2023-06-04T16:28:18.819Z,99071.13
2023-06-04T16:30:46.465Z,99069.03
2023-06-04T16:33:13.913Z,99061.28
2023-06-04T16:35:40.858Z,99068.81
2023-06-04T16:38:08.101Z,99075.81
2023-06-04T16:40:35.095Z,99069.81
2023-06-04T16:43:02.486Z,99068.03
2023-06-04T16:45:29.415Z,99064.53
2023-06-04T16:47:56.893Z,99065.59
2023-06-04T16:50:23.968Z,99065.34
2023-06-04T16:52:51.686Z,99072.31
2023-06-04T16:55:18.690Z,99073.78
2023-06-04T16:57:46.003Z,99068.41
2023-06-04T17:00:25.731Z,99071.47
2023-06-04T17:02:58.129Z,99074.63
2023-06-04T17:05:28.248Z,99074.78
2023-06-04T17:07:56.014Z,99073.78
2023-06-04T17:10:29.659Z,99082.91
2023-06-04T17:12:56.882Z,99084.63
2023-06-04T17:15:23.829Z,99087.88
2023-06-04T17:17:51.351Z,99082.22
2023-06-04T17:20:18.730Z,99080.09
2023-06-04T17:22:45.958Z,99081.66
2023-06-04T17:25:12.818Z,99080.53
2023-06-04T17:27:40.217Z,99084.91
2023-06-04T17:30:07.867Z,99068.81
2023-06-04T17:32:35.070Z,99080.50
2023-06-04T17:35:02.015Z,99083.44
2023-06-04T17:37:29.274Z,99087.09
2023-06-04T17:39:56.195Z,99079.31
2023-06-04T17:42:23.414Z,99094.66
2023-06-04T17:44:50.534Z,99090.28
2023-06-04T17:47:17.810Z,99087.94
2023-06-04T17:49:45.718Z,99089.13
2023-06-04T17:52:12.931Z,99099.34
2023-06-04T17:54:39.838Z,99097.16
2023-06-04T17:57:07.959Z,99098.16
2023-06-04T17:59:34.844Z,99097.31
2023-06-04T18:02:02.066Z,99096.34
2023-06-04T18:04:29.064Z,99095.59
2023-06-04T18:06:57.781Z,99098.13
2023-06-04T18:09:26.652Z,99098.47
2023-06-04T18:11:53.867Z,99098.81
2023-06-04T18:14:20.952Z,99102.44
2023-06-04T18:16:48.287Z,99104.84
2023-06-04T18:19:19.621Z,99104.03
2023-06-04T18:21:48.605Z,99104.25
2023-06-04T18:24:15.589Z,99108.25
2023-06-04T18:26:42.713Z,99113.41
2023-06-04T18:29:09.602Z,99121.75
2023-06-04T18:31:37.036Z,99126.13
2023-06-04T18:34:05.068Z,99129.84
2023-06-04T18:36:33.225Z,99130.34
2023-06-04T18:39:00.187Z,99137.38
2023-06-04T18:41:27.455Z,99134.00
2023-06-04T18:43:54.326Z,99123.94
2023-06-04T18:46:21.584Z,99143.72
2023-06-04T18:48:48.489Z,99138.81
2023-06-04T18:51:15.678Z,99140.16
2023-06-04T18:53:42.584Z,99147.16
2023-06-04T18:56:09.940Z,99151.50
2023-06-04T18:58:36.991Z,99150.53
2023-06-04T19:01:04.167Z,99162.06
2023-06-04T19:03:31.302Z,99156.97
2023-06-04T19:05:58.520Z,99157.72
2023-06-04T19:08:25.467Z,99167.25
2023-06-04T19:10:53.487Z,99167.78
2023-06-04T19:13:20.600Z,99159.59
2023-06-04T19:15:47.788Z,99170.00
2023-06-04T19:18:14.793Z,99161.84
2023-06-04T19:20:41.968Z,99168.69
2023-06-04T19:23:08.827Z,99169.28
2023-06-04T19:25:36.263Z,99166.13
2023-06-04T19:28:05.630Z,99167.72
2023-06-04T19:30:33.201Z,99176.09
2023-06-04T19:33:00.179Z,99171.44
2023-06-04T19:35:27.490Z,99173.88
2023-06-04T19:37:54.410Z,99175.13
2023-06-04T19:40:21.723Z,99172.09
2023-06-04T19:42:48.772Z,99174.16
2023-06-04T19:45:16.210Z,99181.53
2023-06-04T19:47:43.185Z,99178.50
2023-06-04T19:50:12.301Z,99177.09
2023-06-04T19:52:39.259Z,99188.19
2023-06-04T19:55:09.076Z,99184.22
2023-06-04T19:57:36.176Z,99179.38
2023-06-04T20:00:05.529Z,99183.19
2023-06-04T20:02:32.709Z,99185.34
2023-06-04T20:05:00.014Z,99188.22
2023-06-04T20:07:27.410Z,99186.78
2023-06-04T20:09:54.685Z,99180.09
2023-06-04T20:12:21.889Z,99192.88
2023-06-04T20:14:50.033Z,99187.97
2023-06-04T20:17:17.282Z,99187.56
2023-06-04T20:19:44.559Z,99186.75
2023-06-04T20:22:11.767Z,99189.69
2023-06-04T20:24:39.841Z,99193.38
2023-06-04T20:27:06.863Z,99195.59
2023-06-04T20:29:34.148Z,99199.53
2023-06-04T20:32:02.477Z,99201.72
2023-06-04T20:34:29.695Z,99202.78
2023-06-04T20:36:57.489Z,99203.06
2023-06-04T20:39:25.067Z,99206.84
2023-06-04T20:41:51.973Z,99198.19
2023-06-04T20:44:19.675Z,99202.81
2023-06-04T20:46:46.589Z,99198.75
2023-06-04T20:49:13.855Z,99200.81
2023-06-04T20:51:41.353Z,99200.22
2023-06-04T20:54:08.593Z,99203.91
2023-06-04T20:56:35.525Z,99204.16
2023-06-04T20:59:02.778Z,99209.78
2023-06-04T21:01:29.723Z,99206.47
2023-06-04T21:04:00.756Z,99206.59
2023-06-04T21:06:28.345Z,99207.63
2023-06-04T21:08:55.571Z,99209.59
2023-06-04T21:11:22.478Z,99212.44
2023-06-04T21:13:49.714Z,99213.53
2023-06-04T21:16:16.785Z,99208.59
2023-06-04T21:18:44.024Z,99206.94
2023-06-04T21:21:11.197Z,99211.53
2023-06-04T21:23:38.851Z,99210.84
2023-06-04T21:26:06.364Z,99214.56
2023-06-04T21:28:33.606Z,99213.00
2023-06-04T21:31:00.659Z,99213.97
2023-06-04T21:33:28.229Z,99216.81
2023-06-04T21:35:55.159Z,99209.88
2023-06-04T21:38:22.454Z,99217.03
2023-06-04T21:40:49.413Z,99220.78
2023-06-04T21:43:16.653Z,99213.91
2023-06-04T21:45:44.007Z,99221.00
2023-06-04T21:48:11.363Z,99215.94
2023-06-04T21:50:38.400Z,99217.81
2023-06-04T21:53:05.591Z,99229.38
2023-06-04T21:55:32.520Z,99219.94
2023-06-04T21:57:59.862Z,99227.16
2023-06-04T22:00:26.787Z,99226.41
2023-06-04T22:02:54.050Z,99235.34
2023-06-04T22:05:21.148Z,99230.25
2023-06-04T22:07:48.345Z,99236.53
2023-06-04T22:10:16.128Z,99234.03
2023-06-04T22:12:43.313Z,99236.81
2023-06-04T22:15:10.531Z,99231.78
2023-06-04T22:17:37.931Z,99232.91
2023-06-04T22:20:05.316Z,99235.59
2023-06-04T22:22:32.532Z,99234.09
2023-06-04T22:24:59.541Z,99235.13
2023-06-04T22:27:26.783Z,99234.41
2023-06-04T22:29:53.782Z,99232.72
2023-06-04T22:32:21.117Z,99231.13
2023-06-04T22:34:48.187Z,99230.47
2023-06-04T22:37:16.001Z,99227.00
2023-06-04T22:39:42.886Z,99228.81
2023-06-04T22:42:10.108Z,99230.78
2023-06-04T22:44:37.051Z,99230.78
2023-06-04T22:47:04.517Z,99231.75
2023-06-04T22:49:31.457Z,99228.34
2023-06-04T22:51:58.958Z,99233.78
2023-06-04T22:54:25.984Z,99231.31
2023-06-04T22:56:53.204Z,99232.28
2023-06-04T22:59:20.172Z,99238.53
2023-06-04T23:01:47.502Z,99236.09
2023-06-04T23:04:14.496Z,99234.47
2023-06-04T23:06:41.697Z,99235.44
2023-06-04T23:09:09.519Z,99240.81
2023-06-04T23:11:36.786Z,99236.59
2023-06-04T23:14:03.719Z,99231.41
2023-06-04T23:16:30.915Z,99237.69
2023-06-04T23:18:57.897Z,99245.63
2023-06-04T23:21:25.478Z,99247.41
2023-06-04T23:23:52.569Z,99237.75
2023-06-04T23:26:19.783Z,99248.38
2023-06-04T23:28:46.709Z,99251.94
2023-06-04T23:31:13.893Z,99253.81
2023-06-04T23:33:40.872Z,99257.41
2023-06-04T23:36:08.048Z,99251.34
2023-06-04T23:38:35.006Z,99256.69
2023-06-04T23:41:02.251Z,99250.66
2023-06-04T23:43:29.179Z,99257.81
2023-06-04T23:45:56.672Z,99256.19
2023-06-04T23:48:23.555Z,99249.28
2023-06-04T23:50:50.999Z,99253.72
2023-06-04T23:53:17.851Z,99246.84
2023-06-04T23:55:45.045Z,99250.41
2023-06-04T23:58:11.908Z,99253.16
